N825MD LFBD-EDDR
Flight info
| Callsign | N825MD |
|---|---|
| Flight time | 1h 22m |
| Altitude | 34000 |
| Route | CNA6P CNA DCT LAKOB DCT RLP G21 EPL/N0413F300 G21 MAKOT DCT |
| Aircraft | C25B/M-SDE2E3FGHRWXY/LB1 |
Departure
| Time | 2026-04-22 20:02 |
|---|---|
| Airport | Bordeaux–Mérignac Airport (LFBD) |
Arrival
| Time | 2026-04-22 21:25 |
|---|---|
| Airport | Saarbrücken Airport (EDDR) |
| Time | Latitude | Longitude | Altitude | Speed | Heading |
|---|---|---|---|---|---|
| 2026-04-22 19:50 | 44.83722 | -0.69832 | 155 ft | 0 kts | 135° |
| 2026-04-22 20:00 | 44.83685 | -0.70021 | 156 ft | 13 kts | 336° |
| 2026-04-22 20:00 | 44.83689 | -0.70023 | 156 ft | 0 kts | 336° |
| 2026-04-22 20:01 | 44.83700 | -0.70030 | 156 ft | 7 kts | 336° |
| 2026-04-22 20:01 | 44.83777 | -0.70084 | 155 ft | 15 kts | 323° |
| 2026-04-22 20:01 | 44.83792 | -0.70209 | 156 ft | 13 kts | 238° |
| 2026-04-22 20:01 | 44.83748 | -0.70276 | 157 ft | 0 kts | 224° |
| 2026-04-22 20:02 | 44.83746 | -0.70279 | 157 ft | 7 kts | 224° |
| 2026-04-22 20:02 | 44.83442 | -0.70710 | 162 ft | 121 kts | 225° |
| 2026-04-22 20:02 | 44.82673 | -0.71825 | 673 ft | 184 kts | 225° |
| 2026-04-22 20:02 | 44.81635 | -0.73104 | 1831 ft | 208 kts | 220° |
| 2026-04-22 20:03 | 44.80438 | -0.74523 | 2875 ft | 235 kts | 221° |
| 2026-04-22 20:03 | 44.79227 | -0.76112 | 3843 ft | 237 kts | 223° |
| 2026-04-22 20:03 | 44.78072 | -0.77699 | 4891 ft | 231 kts | 228° |
| 2026-04-22 20:03 | 44.77280 | -0.79624 | 5894 ft | 233 kts | 255° |
| 2026-04-22 20:04 | 44.77597 | -0.81788 | 6973 ft | 230 kts | 305° |
| 2026-04-22 20:04 | 44.78869 | -0.83272 | 7719 ft | 248 kts | 328° |
| 2026-04-22 20:04 | 44.80432 | -0.84376 | 8683 ft | 245 kts | 336° |
| 2026-04-22 20:04 | 44.82101 | -0.85120 | 9235 ft | 270 kts | 350° |
| 2026-04-22 20:05 | 44.83927 | -0.84579 | 10178 ft | 268 kts | 23° |
| 2026-04-22 20:05 | 44.85658 | -0.83543 | 10985 ft | 272 kts | 19° |
| 2026-04-22 20:05 | 44.87467 | -0.82778 | 11814 ft | 273 kts | 10° |
| 2026-04-22 20:05 | 44.89361 | -0.82491 | 12646 ft | 273 kts | 1° |
| 2026-04-22 20:06 | 44.91301 | -0.82362 | 13466 ft | 276 kts | 5° |
| 2026-04-22 20:06 | 44.93146 | -0.81544 | 14204 ft | 281 kts | 22° |
| 2026-04-22 20:06 | 44.94829 | -0.80102 | 14879 ft | 287 kts | 39° |
| 2026-04-22 20:06 | 44.96296 | -0.78218 | 15557 ft | 290 kts | 39° |
| 2026-04-22 20:07 | 44.97841 | -0.76345 | 16250 ft | 294 kts | 40° |
| 2026-04-22 20:07 | 44.99394 | -0.74381 | 16966 ft | 297 kts | 40° |
| 2026-04-22 20:07 | 45.00925 | -0.72449 | 17909 ft | 293 kts | 40° |
| 2026-04-22 20:07 | 45.02455 | -0.70518 | 18567 ft | 298 kts | 39° |
| 2026-04-22 20:08 | 45.04008 | -0.68571 | 19201 ft | 301 kts | 40° |
| 2026-04-22 20:08 | 45.05581 | -0.66587 | 19847 ft | 305 kts | 39° |
| 2026-04-22 20:08 | 45.07174 | -0.64579 | 20493 ft | 308 kts | 39° |
| 2026-04-22 20:08 | 45.08785 | -0.62546 | 21149 ft | 311 kts | 39° |
| 2026-04-22 20:09 | 45.09858 | -0.61193 | 21582 ft | 314 kts | 39° |
| 2026-04-22 20:09 | 45.11495 | -0.59121 | 22244 ft | 317 kts | 39° |
| 2026-04-22 20:09 | 45.13156 | -0.57021 | 22913 ft | 320 kts | 39° |
| 2026-04-22 20:09 | 45.14964 | -0.55174 | 23544 ft | 320 kts | 24° |
| 2026-04-22 20:10 | 45.17006 | -0.53947 | 24110 ft | 319 kts | 14° |
| 2026-04-22 20:10 | 45.19161 | -0.52985 | 24688 ft | 321 kts | 14° |
| 2026-04-22 20:10 | 45.21293 | -0.51985 | 25280 ft | 324 kts | 14° |
| 2026-04-22 20:10 | 45.23438 | -0.50985 | 25856 ft | 326 kts | 14° |
| 2026-04-22 20:11 | 45.25614 | -0.49981 | 26437 ft | 329 kts | 13° |
| 2026-04-22 20:11 | 45.27810 | -0.48967 | 27028 ft | 332 kts | 13° |
| 2026-04-22 20:11 | 45.29992 | -0.47957 | 27603 ft | 334 kts | 13° |
| 2026-04-22 20:11 | 45.32218 | -0.46920 | 28191 ft | 337 kts | 13° |
| 2026-04-22 20:12 | 45.34454 | -0.45886 | 28782 ft | 340 kts | 13° |
| 2026-04-22 20:12 | 45.36716 | -0.44831 | 29374 ft | 343 kts | 13° |
| 2026-04-22 20:12 | 45.38993 | -0.43775 | 29958 ft | 346 kts | 13° |
| 2026-04-22 20:12 | 45.41300 | -0.42699 | 30491 ft | 348 kts | 13° |
| 2026-04-22 20:13 | 45.43614 | -0.41623 | 30992 ft | 351 kts | 13° |
| 2026-04-22 20:13 | 45.45913 | -0.40549 | 31504 ft | 353 kts | 12° |
| 2026-04-22 20:13 | 45.48258 | -0.39457 | 32019 ft | 356 kts | 12° |
| 2026-04-22 20:13 | 45.50626 | -0.38348 | 32538 ft | 358 kts | 12° |
| 2026-04-22 20:14 | 45.53001 | -0.37241 | 33056 ft | 361 kts | 12° |
| 2026-04-22 20:14 | 45.55407 | -0.36114 | 33576 ft | 363 kts | 12° |
| 2026-04-22 20:14 | 45.57817 | -0.34984 | 34050 ft | 366 kts | 12° |
| 2026-04-22 20:15 | 45.62698 | -0.32275 | 34082 ft | 384 kts | 23° |
| 2026-04-22 20:15 | 45.66926 | -0.27435 | 34085 ft | 397 kts | 43° |
| 2026-04-22 20:16 | 45.69930 | -0.20722 | 34085 ft | 405 kts | 57° |
| 2026-04-22 20:16 | 45.72643 | -0.13630 | 34081 ft | 405 kts | 56° |
| 2026-04-22 20:17 | 45.75333 | -0.06525 | 34072 ft | 406 kts | 56° |
| 2026-04-22 20:17 | 45.78025 | 0.00588 | 34079 ft | 406 kts | 56° |
| 2026-04-22 20:18 | 45.80719 | 0.07725 | 34085 ft | 406 kts | 56° |
| 2026-04-22 20:18 | 45.83408 | 0.14869 | 34081 ft | 406 kts | 56° |
| 2026-04-22 20:19 | 45.86095 | 0.22029 | 34083 ft | 406 kts | 56° |
| 2026-04-22 20:19 | 45.88754 | 0.29131 | 34081 ft | 406 kts | 56° |
| 2026-04-22 20:20 | 45.91430 | 0.36295 | 34075 ft | 406 kts | 56° |
| 2026-04-22 20:20 | 45.94097 | 0.43458 | 34078 ft | 406 kts | 56° |
| 2026-04-22 20:21 | 45.96767 | 0.50641 | 34080 ft | 406 kts | 56° |
| 2026-04-22 20:21 | 45.99410 | 0.57777 | 34089 ft | 406 kts | 56° |
| 2026-04-22 20:22 | 46.02063 | 0.64958 | 34088 ft | 406 kts | 56° |
| 2026-04-22 20:22 | 46.04715 | 0.72154 | 34097 ft | 406 kts | 56° |
| 2026-04-22 20:23 | 46.07376 | 0.79390 | 34098 ft | 406 kts | 56° |
| 2026-04-22 20:23 | 46.09999 | 0.86550 | 34101 ft | 406 kts | 57° |
| 2026-04-22 20:24 | 46.12632 | 0.93750 | 34106 ft | 406 kts | 56° |
| 2026-04-22 20:24 | 46.15268 | 1.00980 | 34108 ft | 406 kts | 57° |
| 2026-04-22 20:25 | 46.17891 | 1.08195 | 34111 ft | 405 kts | 57° |
| 2026-04-22 20:25 | 46.20513 | 1.15423 | 34115 ft | 405 kts | 57° |
| 2026-04-22 20:26 | 46.23115 | 1.22617 | 34116 ft | 405 kts | 57° |
| 2026-04-22 20:26 | 46.25701 | 1.29785 | 34123 ft | 405 kts | 57° |
| 2026-04-22 20:27 | 46.28301 | 1.37015 | 34127 ft | 405 kts | 57° |
| 2026-04-22 20:27 | 46.30899 | 1.44253 | 34129 ft | 405 kts | 57° |
| 2026-04-22 20:28 | 46.33491 | 1.51499 | 34130 ft | 405 kts | 57° |
| 2026-04-22 20:28 | 46.36058 | 1.58694 | 34138 ft | 404 kts | 57° |
| 2026-04-22 20:29 | 46.38634 | 1.65931 | 34131 ft | 404 kts | 57° |
| 2026-04-22 20:29 | 46.41212 | 1.73196 | 34144 ft | 404 kts | 57° |
| 2026-04-22 20:30 | 46.43780 | 1.80448 | 34144 ft | 403 kts | 57° |
| 2026-04-22 20:30 | 46.46356 | 1.87747 | 34145 ft | 403 kts | 57° |
| 2026-04-22 20:31 | 46.48897 | 1.94961 | 34155 ft | 403 kts | 57° |
| 2026-04-22 20:31 | 46.51447 | 2.02232 | 34148 ft | 403 kts | 57° |
| 2026-04-22 20:32 | 46.53996 | 2.09508 | 34149 ft | 403 kts | 57° |
| 2026-04-22 20:32 | 46.56515 | 2.16728 | 34158 ft | 403 kts | 57° |
| 2026-04-22 20:33 | 46.59047 | 2.24000 | 34166 ft | 402 kts | 56° |
| 2026-04-22 20:33 | 46.61585 | 2.31311 | 34164 ft | 402 kts | 56° |
| 2026-04-22 20:34 | 46.63681 | 2.37361 | 34158 ft | 402 kts | 56° |
| 2026-04-22 20:34 | 46.66198 | 2.44646 | 34165 ft | 401 kts | 56° |
| 2026-04-22 20:35 | 46.69112 | 2.53105 | 34163 ft | 401 kts | 56° |
| 2026-04-22 20:35 | 46.71189 | 2.59155 | 34168 ft | 401 kts | 56° |
| 2026-04-22 20:36 | 46.73683 | 2.66433 | 34168 ft | 400 kts | 56° |
| 2026-04-22 20:36 | 46.76185 | 2.73754 | 34168 ft | 400 kts | 56° |
| 2026-04-22 20:37 | 46.78664 | 2.81032 | 34176 ft | 400 kts | 56° |
| 2026-04-22 20:37 | 46.81127 | 2.88282 | 34178 ft | 399 kts | 56° |
| 2026-04-22 20:38 | 46.83610 | 2.95612 | 34183 ft | 399 kts | 56° |
| 2026-04-22 20:38 | 46.86067 | 3.02884 | 34182 ft | 398 kts | 56° |
| 2026-04-22 20:39 | 46.88584 | 3.10076 | 34170 ft | 391 kts | 49° |
| 2026-04-22 20:39 | 46.91734 | 3.16494 | 34181 ft | 388 kts | 46° |
| 2026-04-22 20:40 | 46.94880 | 3.22904 | 34189 ft | 387 kts | 45° |
| 2026-04-22 20:40 | 46.98036 | 3.29319 | 34186 ft | 387 kts | 46° |
| 2026-04-22 20:41 | 47.01174 | 3.35733 | 34191 ft | 386 kts | 46° |
| 2026-04-22 20:41 | 47.04306 | 3.42138 | 34187 ft | 386 kts | 46° |
| 2026-04-22 20:42 | 47.07435 | 3.48556 | 34187 ft | 386 kts | 45° |
| 2026-04-22 20:42 | 47.10554 | 3.54967 | 34194 ft | 385 kts | 45° |
| 2026-04-22 20:43 | 47.13647 | 3.61341 | 34191 ft | 385 kts | 45° |
| 2026-04-22 20:43 | 47.16755 | 3.67760 | 34188 ft | 385 kts | 45° |
| 2026-04-22 20:44 | 47.19860 | 3.74188 | 34199 ft | 384 kts | 45° |
| 2026-04-22 20:44 | 47.22955 | 3.80608 | 34202 ft | 384 kts | 45° |
| 2026-04-22 20:45 | 47.26041 | 3.87026 | 34199 ft | 383 kts | 45° |
| 2026-04-22 20:45 | 47.29098 | 3.93400 | 34204 ft | 382 kts | 45° |
| 2026-04-22 20:46 | 47.33690 | 4.03004 | 34212 ft | 381 kts | 45° |
| 2026-04-22 20:46 | 47.36752 | 4.09417 | 34213 ft | 381 kts | 45° |
| 2026-04-22 20:47 | 47.39775 | 4.15771 | 34218 ft | 380 kts | 46° |
| 2026-04-22 20:47 | 47.42813 | 4.22172 | 34219 ft | 380 kts | 46° |
| 2026-04-22 20:48 | 47.45849 | 4.28582 | 34223 ft | 379 kts | 46° |
| 2026-04-22 20:48 | 47.48879 | 4.34996 | 34225 ft | 379 kts | 46° |
| 2026-04-22 20:49 | 47.51850 | 4.41472 | 34238 ft | 382 kts | 50° |
| 2026-04-22 20:49 | 47.54803 | 4.47967 | 34230 ft | 377 kts | 45° |
| 2026-04-22 20:50 | 47.57836 | 4.54279 | 34223 ft | 379 kts | 47° |
| 2026-04-22 20:50 | 47.60830 | 4.60713 | 34232 ft | 378 kts | 46° |
| 2026-04-22 20:51 | 47.63850 | 4.67127 | 34237 ft | 378 kts | 47° |
| 2026-04-22 20:51 | 47.66824 | 4.73492 | 34235 ft | 378 kts | 47° |
| 2026-04-22 20:52 | 47.69824 | 4.79915 | 34239 ft | 377 kts | 47° |
| 2026-04-22 20:52 | 47.72812 | 4.86331 | 34235 ft | 377 kts | 47° |
| 2026-04-22 20:53 | 47.75803 | 4.92771 | 34234 ft | 377 kts | 47° |
| 2026-04-22 20:53 | 47.78780 | 4.99193 | 34242 ft | 377 kts | 47° |
| 2026-04-22 20:54 | 47.81760 | 5.05639 | 34242 ft | 377 kts | 47° |
| 2026-04-22 20:54 | 47.84714 | 5.12047 | 34240 ft | 377 kts | 47° |
| 2026-04-22 20:55 | 47.87721 | 5.18566 | 34245 ft | 387 kts | 48° |
| 2026-04-22 20:55 | 47.90800 | 5.25258 | 34250 ft | 393 kts | 47° |
| 2026-04-22 20:56 | 47.94149 | 5.31713 | 34247 ft | 396 kts | 45° |
| 2026-04-22 20:56 | 47.97516 | 5.38318 | 34255 ft | 400 kts | 46° |
| 2026-04-22 20:57 | 48.00896 | 5.44894 | 34256 ft | 402 kts | 46° |
| 2026-04-22 20:57 | 48.04326 | 5.51615 | 34257 ft | 404 kts | 46° |
| 2026-04-22 20:58 | 48.07721 | 5.58265 | 34258 ft | 405 kts | 46° |
| 2026-04-22 20:58 | 48.10565 | 5.63862 | 34255 ft | 405 kts | 47° |
| 2026-04-22 20:59 | 48.13982 | 5.70591 | 34262 ft | 406 kts | 47° |
| 2026-04-22 20:59 | 48.17443 | 5.77426 | 34269 ft | 406 kts | 47° |
| 2026-04-22 21:00 | 48.20877 | 5.84226 | 34274 ft | 406 kts | 47° |
| 2026-04-22 21:00 | 48.24278 | 5.90979 | 34273 ft | 403 kts | 47° |
| 2026-04-22 21:01 | 48.27651 | 5.97691 | 34277 ft | 400 kts | 47° |
| 2026-04-22 21:01 | 48.31042 | 6.04269 | 34135 ft | 388 kts | 42° |
| 2026-04-22 21:02 | 48.33008 | 6.06981 | 33646 ft | 378 kts | 34° |
| 2026-04-22 21:02 | 48.35151 | 6.09196 | 33148 ft | 371 kts | 27° |
| 2026-04-22 21:02 | 48.37325 | 6.11285 | 32662 ft | 368 kts | 29° |
| 2026-04-22 21:02 | 48.39470 | 6.13387 | 32177 ft | 366 kts | 29° |
| 2026-04-22 21:03 | 48.41613 | 6.15475 | 31687 ft | 364 kts | 29° |
| 2026-04-22 21:03 | 48.43741 | 6.17530 | 31215 ft | 361 kts | 29° |
| 2026-04-22 21:03 | 48.45874 | 6.19606 | 30732 ft | 360 kts | 30° |
| 2026-04-22 21:03 | 48.47949 | 6.21625 | 30259 ft | 358 kts | 30° |
| 2026-04-22 21:04 | 48.50061 | 6.23690 | 29760 ft | 355 kts | 30° |
| 2026-04-22 21:04 | 48.52130 | 6.25702 | 29299 ft | 352 kts | 30° |
| 2026-04-22 21:04 | 48.54181 | 6.27710 | 28835 ft | 349 kts | 31° |
| 2026-04-22 21:04 | 48.56225 | 6.29704 | 28369 ft | 347 kts | 30° |
| 2026-04-22 21:05 | 48.58245 | 6.31684 | 27913 ft | 345 kts | 31° |
| 2026-04-22 21:05 | 48.60231 | 6.33625 | 27465 ft | 343 kts | 31° |
| 2026-04-22 21:05 | 48.62229 | 6.35589 | 27016 ft | 341 kts | 31° |
| 2026-04-22 21:05 | 48.64219 | 6.37535 | 26566 ft | 339 kts | 31° |
| 2026-04-22 21:06 | 48.66190 | 6.39488 | 26116 ft | 338 kts | 33° |
| 2026-04-22 21:06 | 48.68114 | 6.41526 | 25674 ft | 337 kts | 33° |
| 2026-04-22 21:06 | 48.70045 | 6.43552 | 25228 ft | 335 kts | 33° |
| 2026-04-22 21:06 | 48.72004 | 6.45452 | 24787 ft | 334 kts | 31° |
| 2026-04-22 21:07 | 48.73961 | 6.47348 | 24340 ft | 333 kts | 32° |
| 2026-04-22 21:07 | 48.75883 | 6.49238 | 23911 ft | 332 kts | 32° |
| 2026-04-22 21:07 | 48.77821 | 6.51144 | 23433 ft | 330 kts | 32° |
| 2026-04-22 21:07 | 48.79767 | 6.53047 | 22989 ft | 325 kts | 32° |
| 2026-04-22 21:08 | 48.81657 | 6.54892 | 22558 ft | 321 kts | 33° |
| 2026-04-22 21:08 | 48.83525 | 6.56731 | 22143 ft | 317 kts | 33° |
| 2026-04-22 21:08 | 48.85379 | 6.58546 | 21723 ft | 315 kts | 33° |
| 2026-04-22 21:08 | 48.87207 | 6.60348 | 21313 ft | 312 kts | 33° |
| 2026-04-22 21:09 | 48.89027 | 6.62132 | 20896 ft | 310 kts | 33° |
| 2026-04-22 21:09 | 48.90822 | 6.63905 | 20483 ft | 309 kts | 33° |
| 2026-04-22 21:09 | 48.92629 | 6.65679 | 20081 ft | 307 kts | 34° |
| 2026-04-22 21:09 | 48.94231 | 6.67266 | 19719 ft | 307 kts | 34° |
| 2026-04-22 21:10 | 48.96005 | 6.69007 | 19320 ft | 306 kts | 34° |
| 2026-04-22 21:10 | 48.97782 | 6.70780 | 18919 ft | 305 kts | 35° |
| 2026-04-22 21:10 | 48.99385 | 6.72921 | 18497 ft | 303 kts | 48° |
| 2026-04-22 21:10 | 49.00815 | 6.75389 | 18072 ft | 301 kts | 48° |
| 2026-04-22 21:11 | 49.02193 | 6.77735 | 17683 ft | 299 kts | 49° |
| 2026-04-22 21:11 | 49.03589 | 6.80189 | 17277 ft | 298 kts | 49° |
| 2026-04-22 21:11 | 49.04956 | 6.82557 | 16882 ft | 297 kts | 49° |
| 2026-04-22 21:11 | 49.06313 | 6.84921 | 16498 ft | 296 kts | 49° |
| 2026-04-22 21:12 | 49.07235 | 6.86512 | 16236 ft | 295 kts | 49° |
| 2026-04-22 21:12 | 49.09042 | 6.89668 | 15714 ft | 295 kts | 49° |
| 2026-04-22 21:12 | 49.10382 | 6.91987 | 15332 ft | 294 kts | 49° |
| 2026-04-22 21:12 | 49.11730 | 6.94351 | 14943 ft | 294 kts | 50° |
| 2026-04-22 21:13 | 49.13077 | 6.96692 | 14557 ft | 293 kts | 49° |
| 2026-04-22 21:13 | 49.14419 | 6.99044 | 14171 ft | 293 kts | 50° |
| 2026-04-22 21:13 | 49.15766 | 7.01390 | 13763 ft | 293 kts | 49° |
| 2026-04-22 21:13 | 49.16651 | 7.02939 | 13501 ft | 292 kts | 50° |
| 2026-04-22 21:14 | 49.18425 | 7.06057 | 12979 ft | 288 kts | 56° |
| 2026-04-22 21:14 | 49.19042 | 7.07891 | 12727 ft | 287 kts | 65° |
| 2026-04-22 21:14 | 49.19963 | 7.10556 | 12369 ft | 286 kts | 59° |
| 2026-04-22 21:14 | 49.21355 | 7.12630 | 11971 ft | 289 kts | 30° |
| 2026-04-22 21:15 | 49.23332 | 7.13208 | 11573 ft | 297 kts | 359° |
| 2026-04-22 21:15 | 49.25276 | 7.12111 | 11196 ft | 306 kts | 328° |
| 2026-04-22 21:15 | 49.26654 | 7.09597 | 10820 ft | 313 kts | 298° |
| 2026-04-22 21:15 | 49.27256 | 7.06385 | 10473 ft | 313 kts | 283° |
| 2026-04-22 21:16 | 49.27678 | 7.03109 | 10149 ft | 312 kts | 282° |
| 2026-04-22 21:16 | 49.28075 | 6.99856 | 9805 ft | 310 kts | 283° |
| 2026-04-22 21:16 | 49.28533 | 6.96638 | 9469 ft | 309 kts | 284° |
| 2026-04-22 21:16 | 49.28982 | 6.93428 | 9133 ft | 308 kts | 283° |
| 2026-04-22 21:17 | 49.29421 | 6.90234 | 8797 ft | 302 kts | 283° |
| 2026-04-22 21:17 | 49.29784 | 6.87129 | 8454 ft | 291 kts | 275° |
| 2026-04-22 21:17 | 49.29514 | 6.84165 | 8085 ft | 279 kts | 255° |
| 2026-04-22 21:17 | 49.28607 | 6.81652 | 7696 ft | 267 kts | 221° |
| 2026-04-22 21:18 | 49.27009 | 6.80467 | 7291 ft | 251 kts | 184° |
| 2026-04-22 21:18 | 49.25321 | 6.80798 | 6935 ft | 242 kts | 158° |
| 2026-04-22 21:18 | 49.23958 | 6.82134 | 6585 ft | 233 kts | 130° |
| 2026-04-22 21:18 | 49.22853 | 6.83965 | 6210 ft | 232 kts | 143° |
| 2026-04-22 21:19 | 49.21261 | 6.84417 | 5814 ft | 244 kts | 185° |
| 2026-04-22 21:19 | 49.19615 | 6.83996 | 5458 ft | 235 kts | 170° |
| 2026-04-22 21:19 | 49.18245 | 6.85123 | 5084 ft | 223 kts | 127° |
| 2026-04-22 21:19 | 49.17757 | 6.87241 | 4711 ft | 211 kts | 88° |
| 2026-04-22 21:20 | 49.18346 | 6.89237 | 4340 ft | 211 kts | 49° |
| 2026-04-22 21:20 | 49.19556 | 6.90478 | 3991 ft | 206 kts | 39° |
| 2026-04-22 21:20 | 49.20357 | 6.92116 | 3817 ft | 185 kts | 72° |
| 2026-04-22 21:20 | 49.20705 | 6.93882 | 3807 ft | 167 kts | 83° |
| 2026-04-22 21:21 | 49.20862 | 6.95554 | 3802 ft | 144 kts | 82° |
| 2026-04-22 21:21 | 49.20983 | 6.96901 | 3755 ft | 112 kts | 84° |
| 2026-04-22 21:21 | 49.21061 | 6.97974 | 3514 ft | 96 kts | 86° |
| 2026-04-22 21:21 | 49.21096 | 6.98934 | 3260 ft | 88 kts | 87° |
| 2026-04-22 21:22 | 49.21116 | 6.99878 | 2933 ft | 89 kts | 86° |
| 2026-04-22 21:22 | 49.21139 | 7.00808 | 2603 ft | 88 kts | 85° |
| 2026-04-22 21:22 | 49.21171 | 7.01724 | 2343 ft | 88 kts | 86° |
| 2026-04-22 21:22 | 49.21213 | 7.02661 | 2101 ft | 86 kts | 85° |
| 2026-04-22 21:23 | 49.21245 | 7.03606 | 1861 ft | 93 kts | 87° |
| 2026-04-22 21:23 | 49.21259 | 7.04620 | 1690 ft | 100 kts | 86° |
| 2026-04-22 21:23 | 49.21279 | 7.05711 | 1593 ft | 104 kts | 86° |
| 2026-04-22 21:23 | 49.21320 | 7.06831 | 1425 ft | 105 kts | 82° |
| 2026-04-22 21:24 | 49.21373 | 7.07941 | 1284 ft | 104 kts | 91° |
| 2026-04-22 21:24 | 49.21379 | 7.09051 | 1160 ft | 99 kts | 78° |
| 2026-04-22 21:24 | 49.21427 | 7.10074 | 1024 ft | 86 kts | 83° |
| 2026-04-22 21:24 | 49.21453 | 7.10858 | 1053 ft | 51 kts | 86° |
| 2026-04-22 21:25 | 49.21466 | 7.11018 | 1059 ft | 3 kts | 18° |
| 2026-04-22 21:25 | 49.21488 | 7.11030 | 1059 ft | 0 kts | 19° |
| 2026-04-22 21:25 | 49.21552 | 7.11061 | 1061 ft | 17 kts | 16° |
| 2026-04-22 21:25 | 49.21679 | 7.11127 | 1062 ft | 22 kts | 18° |
| 2026-04-22 21:26 | 49.21809 | 7.11180 | 1062 ft | 17 kts | 351° |
| 2026-04-22 21:26 | 49.21847 | 7.11176 | 1062 ft | 0 kts | 28° |